createdAt,value
2017-06-02T00:00:29.152Z,12.92
2017-06-02T00:02:14.584Z,13.01
2017-06-02T00:03:14.914Z,13.05
2017-06-02T00:04:14.627Z,13.05
2017-06-02T00:05:14.650Z,12.95
2017-06-02T00:06:29.595Z,12.9
2017-06-02T00:07:14.702Z,12.86
2017-06-02T00:08:14.722Z,12.9
2017-06-02T00:09:14.745Z,12.92
2017-06-02T00:10:14.768Z,12.86
2017-06-02T00:11:15.096Z,12.79
2017-06-02T00:12:15.184Z,12.79
2017-06-02T00:14:14.861Z,12.68
2017-06-02T00:16:14.909Z,12.53
2017-06-02T00:17:29.856Z,12.52
2017-06-02T00:18:14.957Z,12.5
2017-06-02T00:19:29.901Z,12.42
2017-06-02T00:20:15.308Z,12.52
2017-06-02T00:21:29.949Z,12.47
2017-06-02T00:22:15.357Z,12.37
2017-06-02T00:23:15.381Z,12.37
2017-06-02T00:24:15.401Z,12.29
2017-06-02T00:25:15.121Z,12.34
2017-06-02T00:26:15.450Z,12.32
2017-06-02T00:27:15.470Z,12.27
2017-06-02T00:28:15.192Z,12.29
2017-06-02T00:29:15.517Z,12.31
2017-06-02T00:30:15.540Z,12.24
2017-06-02T00:31:15.567Z,12.24
2017-06-02T00:32:15.590Z,12.29
2017-06-02T00:33:15.612Z,12.2
2017-06-02T00:34:29.947Z,12.19
2017-06-02T00:35:15.356Z,12.24
2017-06-02T00:36:15.682Z,12.21
2017-06-02T00:37:15.404Z,12.19
2017-06-02T00:38:15.425Z,12.13
2017-06-02T00:39:15.755Z,12.14
2017-06-02T00:40:15.470Z,12.16
2017-06-02T00:41:15.796Z,12.07
2017-06-02T00:43:15.871Z,11.98
2017-06-02T00:44:15.868Z,11.98
2017-06-02T00:45:15.889Z,11.98
2017-06-02T00:46:15.913Z,11.91
2017-06-02T00:47:15.938Z,12.02
2017-06-02T00:48:30.275Z,12.14
2017-06-02T00:49:30.600Z,12.02
2017-06-02T00:50:16.006Z,12.05
2017-06-02T00:51:16.031Z,12.1
2017-06-02T00:52:15.800Z,12.05
2017-06-02T00:53:30.691Z,11.96
2017-06-02T00:54:15.794Z,11.99
2017-06-02T00:55:16.122Z,12.05
2017-06-02T00:56:15.840Z,11.94
2017-06-02T00:57:15.866Z,11.98
2017-06-02T00:58:15.890Z,11.91
2017-06-02T00:59:15.912Z,11.94
2017-06-02T01:00:15.934Z,11.96
2017-06-02T01:01:15.957Z,11.98
2017-06-02T01:02:16.288Z,12.04
2017-06-02T01:03:16.306Z,11.96
2017-06-02T01:04:16.330Z,12.13
2017-06-02T01:05:16.352Z,12.05
2017-06-02T01:06:16.378Z,12.02
2017-06-02T01:07:31.015Z,12.05
2017-06-02T01:08:16.423Z,12.02
2017-06-02T01:09:31.061Z,11.96
2017-06-02T01:10:16.468Z,11.95
2017-06-02T01:11:16.488Z,11.91
2017-06-02T01:12:16.516Z,11.83
2017-06-02T01:13:16.539Z,11.98
2017-06-02T01:14:16.562Z,11.98
2017-06-02T01:15:16.582Z,12.04
2017-06-02T01:16:16.606Z,11.99
2017-06-02T01:18:16.349Z,11.8
2017-06-02T01:19:16.675Z,11.73
2017-06-02T01:20:31.012Z,11.73
2017-06-02T01:21:16.720Z,11.73
2017-06-02T01:22:16.744Z,11.69
2017-06-02T01:23:16.767Z,11.67
2017-06-02T01:24:16.788Z,11.72
2017-06-02T01:25:31.429Z,11.72
2017-06-02T01:26:16.530Z,11.7
2017-06-02T01:27:16.858Z,11.64
2017-06-02T01:28:16.879Z,11.64
2017-06-02T01:29:16.903Z,11.61
2017-06-02T01:30:16.926Z,11.49
2017-06-02T01:31:16.950Z,11.55
2017-06-02T01:32:16.670Z,11.67
2017-06-02T01:33:16.999Z,11.69
2017-06-02T01:35:17.041Z,11.69
2017-06-02T01:36:16.809Z,11.7
2017-06-02T01:37:17.088Z,11.62
2017-06-02T01:38:31.726Z,11.51
2017-06-02T01:39:17.132Z,11.58
2017-06-02T01:40:17.159Z,11.6
2017-06-02T01:41:31.493Z,11.52
2017-06-02T01:42:17.205Z,11.51
2017-06-02T01:43:17.226Z,11.51
2017-06-02T01:44:17.247Z,11.51
2017-06-02T01:45:17.269Z,11.57
2017-06-02T01:46:17.294Z,11.58
2017-06-02T01:47:17.060Z,11.33
2017-06-02T01:48:17.338Z,11.49
2017-06-02T01:50:17.082Z,11.52
2017-06-02T01:52:31.743Z,11.52
2017-06-02T01:53:31.765Z,11.57
2017-06-02T01:54:17.173Z,11.61
2017-06-02T01:55:17.196Z,11.65
2017-06-02T01:56:32.139Z,11.55
2017-06-02T01:57:17.241Z,11.58
2017-06-02T01:58:17.564Z,11.6
2017-06-02T01:59:17.288Z,11.35
2017-06-02T02:00:17.611Z,11.29
2017-06-02T02:01:17.634Z,11.39
2017-06-02T02:02:17.656Z,11.28
2017-06-02T02:03:17.677Z,11.37
2017-06-02T02:04:17.753Z,11.28
2017-06-02T02:05:17.724Z,11.29
2017-06-02T02:06:17.443Z,11.27
2017-06-02T02:07:17.770Z,11.24
2017-06-02T02:08:17.791Z,11.33
2017-06-02T02:09:32.431Z,11.28
2017-06-02T02:10:17.535Z,11.32
2017-06-02T02:11:17.571Z,11.32
2017-06-02T02:12:17.882Z,11.36
2017-06-02T02:13:17.601Z,11.29
2017-06-02T02:14:17.622Z,11.24
2017-06-02T02:15:17.952Z,11.33
2017-06-02T02:16:17.980Z,11.32
2017-06-02T02:17:17.998Z,11.28
2017-06-02T02:18:18.018Z,11.28
2017-06-02T02:19:18.041Z,11.25
2017-06-02T02:20:18.063Z,11.29
2017-06-02T02:21:18.084Z,11.32
2017-06-02T02:22:32.727Z,11.28
2017-06-02T02:23:17.828Z,11.35
2017-06-02T02:24:18.151Z,11.28
2017-06-02T02:25:18.175Z,11.4
2017-06-02T02:26:18.201Z,11.28
2017-06-02T02:28:32.862Z,11.27
2017-06-02T02:29:18.265Z,11.17
2017-06-02T02:31:18.311Z,11.17
2017-06-02T02:32:18.334Z,11.04
2017-06-02T02:33:18.356Z,11
2017-06-02T02:34:18.074Z,10.96
2017-06-02T02:35:18.400Z,10.97
2017-06-02T02:36:18.427Z,10.89
2017-06-02T02:37:18.447Z,10.89
2017-06-02T02:38:18.473Z,10.85
2017-06-02T02:39:18.187Z,10.85
2017-06-02T02:40:18.514Z,10.86
2017-06-02T02:41:17.930Z,10.73
2017-06-02T02:42:18.564Z,10.88
2017-06-02T02:43:18.277Z,10.91
2017-06-02T02:44:33.220Z,10.88
2017-06-02T02:45:18.626Z,10.89
2017-06-02T02:46:18.645Z,10.97
2017-06-02T02:47:18.671Z,11.03
2017-06-02T02:48:18.396Z,10.97
2017-06-02T02:49:18.713Z,10.91
2017-06-02T02:50:18.737Z,10.96
2017-06-02T02:51:18.762Z,10.86
2017-06-02T02:52:18.781Z,10.7
2017-06-02T02:53:18.802Z,10.7
2017-06-02T02:54:18.527Z,10.81
2017-06-02T02:55:18.545Z,10.7
2017-06-02T02:56:18.871Z,10.82
2017-06-02T02:57:18.894Z,10.76
2017-06-02T02:58:18.918Z,10.73
2017-06-02T02:59:18.634Z,10.73
2017-06-02T03:00:33.641Z,10.71
2017-06-02T03:01:18.679Z,10.6
2017-06-02T03:02:18.702Z,10.61
2017-06-02T03:03:19.028Z,10.63
2017-06-02T03:04:18.746Z,10.64
2017-06-02T03:05:19.070Z,10.53
2017-06-02T03:06:18.792Z,10.53
2017-06-02T03:07:18.816Z,10.51
2017-06-02T03:08:18.834Z,10.47
2017-06-02T03:10:19.183Z,10.51
2017-06-02T03:11:19.208Z,10.47
2017-06-02T03:12:18.931Z,10.36
2017-06-02T03:13:33.866Z,10.38
2017-06-02T03:14:19.271Z,10.42
2017-06-02T03:15:19.294Z,10.48
2017-06-02T03:16:33.934Z,10.45
2017-06-02T03:17:19.341Z,10.59
2017-06-02T03:18:19.370Z,10.66
2017-06-02T03:19:19.382Z,10.68
2017-06-02T03:20:19.406Z,10.64
2017-06-02T03:21:19.125Z,10.68
2017-06-02T03:22:19.455Z,10.78
2017-06-02T03:23:19.471Z,10.76
2017-06-02T03:24:19.494Z,10.71
2017-06-02T03:25:19.519Z,10.66
2017-06-02T03:26:19.537Z,10.74
2017-06-02T03:27:19.565Z,10.74
2017-06-02T03:28:19.585Z,10.79
2017-06-02T03:29:34.223Z,10.73
2017-06-02T03:30:19.629Z,10.71
2017-06-02T03:31:34.268Z,10.79
2017-06-02T03:32:19.677Z,10.74
2017-06-02T03:33:19.695Z,10.73
2017-06-02T03:34:19.718Z,10.79
2017-06-02T03:35:19.740Z,10.79
2017-06-02T03:36:19.763Z,10.91
2017-06-02T03:37:19.484Z,10.78
2017-06-02T03:38:19.807Z,10.74
2017-06-02T03:39:19.829Z,10.81
2017-06-02T03:40:19.852Z,10.88
2017-06-02T03:42:19.897Z,11.09
2017-06-02T03:43:34.536Z,11.19
2017-06-02T03:44:19.940Z,11.24
2017-06-02T03:45:19.963Z,11.35
2017-06-02T03:46:19.987Z,11.42
2017-06-02T03:47:20.009Z,11.39
2017-06-02T03:48:20.032Z,11.44
2017-06-02T03:49:19.751Z,11.43
2017-06-02T03:50:19.774Z,11.44
2017-06-02T03:51:19.795Z,11.51
2017-06-02T03:52:19.818Z,11.57
2017-06-02T03:53:20.143Z,11.67
2017-06-02T03:54:19.865Z,11.7
2017-06-02T03:55:20.187Z,11.72
2017-06-02T03:57:20.239Z,11.91
2017-06-02T03:59:19.975Z,11.9
2017-06-02T04:00:20.300Z,12.04
2017-06-02T04:01:20.327Z,12.04
2017-06-02T04:02:20.347Z,12.19
2017-06-02T04:03:34.986Z,12.17
2017-06-02T04:04:20.392Z,12.24
2017-06-02T04:05:20.414Z,12.27
2017-06-02T04:06:20.487Z,12.32
2017-06-02T04:07:20.463Z,12.32
2017-06-02T04:08:20.180Z,12.47
2017-06-02T04:09:20.504Z,12.7
2017-06-02T04:10:20.528Z,13.17
2017-06-02T04:12:20.274Z,14.77
2017-06-02T04:14:20.621Z,16.58
2017-06-02T04:15:35.264Z,17.3
2017-06-02T04:16:35.287Z,17.23
2017-06-02T04:17:20.701Z,17.16
2017-06-02T04:18:20.716Z,17.16
2017-06-02T04:19:35.059Z,16.96
2017-06-02T04:20:20.771Z,16.81
2017-06-02T04:21:20.796Z,16.78
2017-06-02T04:22:20.820Z,16.75
2017-06-02T04:23:20.843Z,16.88
2017-06-02T04:24:20.869Z,17.23
2017-06-02T04:25:20.898Z,17.95
2017-06-02T04:26:20.922Z,18.85
2017-06-02T04:27:20.946Z,19.54
2017-06-02T04:28:20.668Z,20.18
2017-06-02T04:30:20.722Z,21.07
2017-06-02T04:31:21.059Z,21.44
2017-06-02T04:32:21.078Z,21.92
2017-06-02T04:33:21.104Z,22.47
2017-06-02T04:34:21.134Z,22.61
2017-06-02T04:35:35.778Z,23.22
2017-06-02T04:36:21.193Z,23.2
2017-06-02T04:37:20.918Z,23.69
2017-06-02T04:38:21.247Z,23.83
2017-06-02T04:39:21.277Z,24.1
2017-06-02T04:41:21.030Z,24.71
2017-06-02T04:42:21.167Z,24.83
2017-06-02T04:44:21.118Z,25.7
2017-06-02T04:45:21.453Z,25.88
2017-06-02T04:46:21.483Z,26.02
2017-06-02T04:47:21.580Z,26.23
2017-06-02T04:48:21.552Z,26.55
2017-06-02T04:49:21.576Z,27.21
2017-06-02T04:50:21.608Z,27.4
2017-06-02T04:51:36.259Z,27.6
2017-06-02T04:52:21.670Z,27.51
2017-06-02T04:53:21.703Z,27.62
2017-06-02T04:54:21.735Z,28
2017-06-02T04:55:21.769Z,28.11
2017-06-02T04:56:21.800Z,28.3
2017-06-02T04:57:21.833Z,28.41
2017-06-02T04:58:21.560Z,28.73
2017-06-02T04:59:21.896Z,28.83
2017-06-02T05:00:21.632Z,28.83
2017-06-02T05:01:22.028Z,29.11
2017-06-02T05:02:21.998Z,28.71
2017-06-02T05:03:22.031Z,28.73
2017-06-02T05:04:36.686Z,28.95
2017-06-02T05:05:22.100Z,29.06
2017-06-02T05:06:36.754Z,29.67
2017-06-02T05:07:22.170Z,29.76
2017-06-02T05:08:21.906Z,29.8
2017-06-02T05:09:22.238Z,29.52
2017-06-02T05:10:22.283Z,29.46
2017-06-02T05:11:22.310Z,30.26
2017-06-02T05:12:22.044Z,30.31
2017-06-02T05:13:22.071Z,30.46
2017-06-02T05:14:22.408Z,29.98
2017-06-02T05:16:22.481Z,30.47
2017-06-02T05:17:22.218Z,31.04
2017-06-02T05:18:22.550Z,31.04
2017-06-02T05:19:22.584Z,31.29
2017-06-02T05:20:22.620Z,30.92
2017-06-02T05:21:22.656Z,30.55
2017-06-02T05:22:22.693Z,30.32
2017-06-02T05:23:22.729Z,30.05
2017-06-02T05:24:22.773Z,30.11
2017-06-02T05:25:22.801Z,30.2
2017-06-02T05:26:22.834Z,30.46
2017-06-02T05:27:22.868Z,30.55
2017-06-02T05:28:22.904Z,30.84
2017-06-02T05:29:22.941Z,31.17
2017-06-02T05:30:22.979Z,31.17
2017-06-02T05:31:22.709Z,31.07
2017-06-02T05:32:23.051Z,31.16
2017-06-02T05:33:23.103Z,31.25
2017-06-02T05:34:22.815Z,31.66
2017-06-02T05:35:37.777Z,31.53
2017-06-02T05:36:23.199Z,31.61
2017-06-02T05:37:23.431Z,31.26
2017-06-02T05:38:37.885Z,31.57
2017-06-02T05:39:23.301Z,31.47
2017-06-02T05:40:23.035Z,31.75
2017-06-02T05:41:23.373Z,31.61
2017-06-02T05:42:23.411Z,31.43
2017-06-02T05:43:23.445Z,31.62
2017-06-02T05:44:23.485Z,32.37
2017-06-02T05:45:23.521Z,32.13
2017-06-02T05:46:23.557Z,31.48
2017-06-02T05:47:23.597Z,31.66
2017-06-02T05:48:23.631Z,31.78
2017-06-02T05:49:23.367Z,32.22
2017-06-02T05:50:23.402Z,32.11
2017-06-02T05:51:38.363Z,31.85
2017-06-02T05:52:23.477Z,32.19
2017-06-02T05:53:23.816Z,32.35
2017-06-02T05:54:38.475Z,32.56
2017-06-02T05:55:23.890Z,32.82
2017-06-02T05:56:23.928Z,33.47
2017-06-02T05:57:23.970Z,33.88
2017-06-02T05:58:23.699Z,33.69
2017-06-02T05:59:24.041Z,32.99
2017-06-02T06:00:23.826Z,33.04
2017-06-02T06:02:23.850Z,33.32
2017-06-02T06:03:23.889Z,33.91
2017-06-02T06:04:23.924Z,34.42
2017-06-02T06:05:24.269Z,34.3
2017-06-02T06:06:38.923Z,34.16
2017-06-02T06:07:38.959Z,33.12
2017-06-02T06:08:24.076Z,33.45
2017-06-02T06:09:24.415Z,33.44
2017-06-02T06:10:39.073Z,32.74
2017-06-02T06:11:24.492Z,32.92
2017-06-02T06:12:24.531Z,33.15
2017-06-02T06:13:24.262Z,33.65
2017-06-02T06:14:24.604Z,34.19
2017-06-02T06:15:24.643Z,34.28
2017-06-02T06:16:24.683Z,34.34
2017-06-02T06:18:24.808Z,35.15
2017-06-02T06:19:24.794Z,35.6
2017-06-02T06:20:24.531Z,36.41
2017-06-02T06:21:24.872Z,36.15
2017-06-02T06:22:24.908Z,35.63
2017-06-02T06:23:24.951Z,35.63
2017-06-02T06:24:24.686Z,35.8
2017-06-02T06:25:25.029Z,35.85
2017-06-02T06:26:39.685Z,35.9
2017-06-02T06:27:25.106Z,35.41
2017-06-02T06:28:25.142Z,35.5
2017-06-02T06:29:24.875Z,35.85
2017-06-02T06:30:24.917Z,36.19
2017-06-02T06:31:25.263Z,36.43
2017-06-02T06:32:25.298Z,36.44
2017-06-02T06:33:25.338Z,36.03
2017-06-02T06:34:25.377Z,35.38
2017-06-02T06:35:25.114Z,34.97
2017-06-02T06:36:25.150Z,34.37
2017-06-02T06:37:25.189Z,34.99
2017-06-02T06:38:40.154Z,35.07
2017-06-02T06:39:25.271Z,34.82
2017-06-02T06:40:25.366Z,34.96
2017-06-02T06:41:40.271Z,35.04
2017-06-02T06:42:25.387Z,35.09
2017-06-02T06:43:25.429Z,34.88
2017-06-02T06:44:25.770Z,35.06
2017-06-02T06:45:25.813Z,33.82
2017-06-02T06:46:25.846Z,33.26
2017-06-02T06:47:25.884Z,33.49
2017-06-02T06:48:25.923Z,34.24
2017-06-02T06:49:25.659Z,34.8
2017-06-02T06:50:25.698Z,35.5
2017-06-02T06:52:25.779Z,35.41
2017-06-02T06:53:25.817Z,35.25
2017-06-02T06:54:26.168Z,35.53
2017-06-02T06:55:25.894Z,35.81
2017-06-02T06:56:25.935Z,36.41
2017-06-02T06:57:26.279Z,36.95
2017-06-02T06:58:26.315Z,36.84
2017-06-02T06:59:26.407Z,36.5
2017-06-02T07:00:26.398Z,36.09
2017-06-02T07:01:26.434Z,36.15
2017-06-02T07:02:26.474Z,36.23
2017-06-02T07:03:26.210Z,36.54
2017-06-02T07:04:26.250Z,35.99
2017-06-02T07:05:26.642Z,36.23
2017-06-02T07:06:26.633Z,35.78
2017-06-02T07:07:26.674Z,36.16
2017-06-02T07:08:26.711Z,35.84
2017-06-02T07:09:26.751Z,35.02
2017-06-02T07:10:41.411Z,35.03
2017-06-02T07:11:26.833Z,35.04
2017-06-02T07:12:26.870Z,35.22
2017-06-02T07:13:41.531Z,35.33
2017-06-02T07:14:26.952Z,35.06
2017-06-02T07:15:26.686Z,35.28
2017-06-02T07:16:26.724Z,35.8
2017-06-02T07:17:26.766Z,35.96
2017-06-02T07:18:27.106Z,35.89
2017-06-02T07:19:26.845Z,36.05
2017-06-02T07:20:27.188Z,36.19
2017-06-02T07:21:26.925Z,35.8
2017-06-02T07:22:27.327Z,35.4
2017-06-02T07:23:27.305Z,35.45
2017-06-02T07:24:27.344Z,35.8
2017-06-02T07:25:42.005Z,35.74
2017-06-02T07:26:27.124Z,35.81
2017-06-02T07:27:27.165Z,36.12
2017-06-02T07:28:27.503Z,36.59
2017-06-02T07:29:41.909Z,36.68
2017-06-02T07:30:27.280Z,36.88
2017-06-02T07:31:27.621Z,36.66
2017-06-02T07:32:27.661Z,36.56
2017-06-02T07:33:27.698Z,36.57
2017-06-02T07:34:27.740Z,36.01
2017-06-02T07:35:27.196Z,35.81
2017-06-02T07:37:27.860Z,36.49
2017-06-02T07:40:27.976Z,36.47
2017-06-02T07:41:42.637Z,35.84
2017-06-02T07:42:28.055Z,35.87
2017-06-02T07:43:27.792Z,35.96
2017-06-02T07:44:28.133Z,34.77
2017-06-02T07:45:42.791Z,34.78
2017-06-02T07:46:28.269Z,34.99
2017-06-02T07:47:27.947Z,35.56
2017-06-02T07:48:28.291Z,35.47
2017-06-02T07:49:28.329Z,35.09
2017-06-02T07:50:28.065Z,35.34
2017-06-02T07:51:28.408Z,35.34
2017-06-02T07:52:28.447Z,35.55
2017-06-02T07:53:28.185Z,35.58
2017-06-02T07:55:28.267Z,35.45
2017-06-02T07:56:43.273Z,34.88
2017-06-02T07:57:28.652Z,34.58
2017-06-02T07:58:43.301Z,34.09
2017-06-02T07:59:28.719Z,34.08
2017-06-02T08:00:28.806Z,34.77
2017-06-02T08:01:43.420Z,35.21
2017-06-02T08:02:28.835Z,35.41
2017-06-02T08:03:28.622Z,35.84
2017-06-02T08:04:28.608Z,35.65
2017-06-02T08:05:28.650Z,34.99
2017-06-02T08:06:28.991Z,35.43
2017-06-02T08:07:28.727Z,35.34
2017-06-02T08:08:28.775Z,34.94
2017-06-02T08:09:28.803Z,35.09
2017-06-02T08:10:29.150Z,35.03
2017-06-02T08:11:29.195Z,35.47
2017-06-02T08:12:29.223Z,35.84
2017-06-02T08:13:43.578Z,36.09
2017-06-02T08:14:29.300Z,36.35
2017-06-02T08:15:29.033Z,36.17
2017-06-02T08:16:43.999Z,36.07
2017-06-02T08:17:29.113Z,35.62
2017-06-02T08:18:29.453Z,35.41
2017-06-02T08:19:29.493Z,35.43
2017-06-02T08:20:29.533Z,35.66
2017-06-02T08:21:29.571Z,35.56
2017-06-02T08:22:29.305Z,35.06
2017-06-02T08:23:29.647Z,34.72
2017-06-02T08:24:29.686Z,34.27
2017-06-02T08:25:29.723Z,34.1
2017-06-02T08:27:29.806Z,34.7
2017-06-02T08:28:44.460Z,34.65
2017-06-02T08:29:29.575Z,34.94
2017-06-02T08:30:29.616Z,35.07
2017-06-02T08:31:29.654Z,35.06
2017-06-02T08:32:29.994Z,35.23
2017-06-02T08:33:29.726Z,35.47
2017-06-02T08:35:30.110Z,34.1
2017-06-02T08:36:30.199Z,33.63
2017-06-02T08:37:30.180Z,34
2017-06-02T08:38:30.218Z,34.42
2017-06-02T08:39:30.257Z,34.61
2017-06-02T08:40:30.545Z,34.1
2017-06-02T08:41:30.335Z,34.06
2017-06-02T08:42:30.370Z,34.17
2017-06-02T08:43:30.408Z,34.24
2017-06-02T08:44:45.067Z,34.49
2017-06-02T08:45:45.104Z,33.29
2017-06-02T08:46:30.522Z,32.19
2017-06-02T08:47:30.561Z,31.78
2017-06-02T08:48:45.217Z,31.75
2017-06-02T08:49:30.637Z,32.22
2017-06-02T08:50:30.673Z,32.59
2017-06-02T08:51:30.709Z,32.79
2017-06-02T08:52:30.748Z,33.14
2017-06-02T08:53:45.459Z,33.56
2017-06-02T08:55:30.557Z,34.28
2017-06-02T08:56:30.900Z,34.24
2017-06-02T08:57:30.630Z,34.61
2017-06-02T08:59:45.676Z,33.61
2017-06-02T09:00:45.664Z,33.06
2017-06-02T09:01:45.700Z,33.42
2017-06-02T09:02:45.737Z,34.34
2017-06-02T09:03:30.547Z,34.28
2017-06-02T09:04:45.812Z,34.3
2017-06-02T09:05:30.925Z,33.71
2017-06-02T09:06:31.265Z,33.31
2017-06-02T09:07:30.997Z,33.34
2017-06-02T09:08:31.034Z,32.57
2017-06-02T09:09:31.071Z,32.21
2017-06-02T09:10:31.412Z,32.33
2017-06-02T09:11:31.504Z,32.7
2017-06-02T09:12:31.484Z,32.87
2017-06-02T09:13:31.523Z,32.72
2017-06-02T09:14:31.253Z,32.65
2017-06-02T09:15:31.291Z,32.67
2017-06-02T09:16:31.631Z,32.66
2017-06-02T09:17:31.364Z,32.15
2017-06-02T09:18:31.702Z,32.48
2017-06-02T09:19:31.738Z,32.01
2017-06-02T09:20:46.397Z,30.95
2017-06-02T09:21:31.813Z,30.49
2017-06-02T09:22:31.852Z,30.16
2017-06-02T09:23:31.887Z,30.02
2017-06-02T09:24:31.920Z,29.7
2017-06-02T09:25:31.956Z,29.11
2017-06-02T09:26:31.993Z,29.12
2017-06-02T09:27:32.082Z,29.28
2017-06-02T09:28:32.067Z,29.46
2017-06-02T09:29:32.101Z,29.8
2017-06-02T09:30:32.138Z,30.26
2017-06-02T09:31:32.173Z,30.42
2017-06-02T09:32:32.205Z,30.82
2017-06-02T09:33:46.860Z,30.95
2017-06-02T09:34:32.277Z,30.79
2017-06-02T09:35:32.313Z,30.29
2017-06-02T09:36:46.967Z,30.6
2017-06-02T09:37:32.383Z,31.06
2017-06-02T09:38:32.420Z,30.82
2017-06-02T09:39:32.463Z,30.79
2017-06-02T09:40:31.881Z,30.55
2017-06-02T09:41:32.525Z,30.1
2017-06-02T09:42:32.254Z,29.67
2017-06-02T09:43:32.288Z,30.2
2017-06-02T09:44:32.627Z,30.75
2017-06-02T09:45:32.362Z,30.99
2017-06-02T09:46:32.396Z,31.44
2017-06-02T09:47:47.354Z,31.38
2017-06-02T09:48:47.389Z,31.32
2017-06-02T09:49:47.422Z,30.46
2017-06-02T09:50:32.537Z,30.31
2017-06-02T09:51:47.493Z,29.73
2017-06-02T09:52:32.611Z,29.57
2017-06-02T09:53:32.942Z,29.92
2017-06-02T09:54:32.979Z,30.15
2017-06-02T09:55:33.014Z,30.89
2017-06-02T09:56:33.048Z,31.04
2017-06-02T09:57:33.081Z,31.32
2017-06-02T09:58:33.115Z,30.97
2017-06-02T09:59:33.150Z,31.44
2017-06-02T10:00:33.184Z,31.78
2017-06-02T10:01:33.222Z,31.81
2017-06-02T10:02:33.254Z,32.06
2017-06-02T10:03:47.908Z,32.25
2017-06-02T10:04:33.327Z,31.89
2017-06-02T10:05:33.358Z,31.06
2017-06-02T10:06:33.391Z,30.47
2017-06-02T10:07:33.431Z,30.64
2017-06-02T10:08:33.458Z,30.26
2017-06-02T10:09:33.494Z,30.22
2017-06-02T10:10:33.531Z,30.62
2017-06-02T10:11:33.266Z,29.9
2017-06-02T10:12:33.599Z,29.52
2017-06-02T10:16:33.734Z,31.26
2017-06-02T10:17:33.771Z,31.5
2017-06-02T10:18:33.805Z,31.47
2017-06-02T10:19:33.534Z,31.54
2017-06-02T10:20:33.565Z,31.75
2017-06-02T10:21:33.903Z,31.66
2017-06-02T10:22:33.936Z,31.53
2017-06-02T10:23:48.591Z,30.65
2017-06-02T10:24:34.008Z,30.64
2017-06-02T10:26:34.071Z,29.86
2017-06-02T10:27:34.104Z,29.52
2017-06-02T10:28:34.140Z,29.46
2017-06-02T10:29:34.173Z,29.24
2017-06-02T10:30:34.206Z,28.88
2017-06-02T10:32:34.276Z,29.33
2017-06-02T10:33:34.306Z,29.49
2017-06-02T10:34:34.344Z,29.57
2017-06-02T10:35:34.377Z,29.53
2017-06-02T10:36:34.408Z,29.42
2017-06-02T10:37:34.443Z,29.61
2017-06-02T10:38:34.482Z,29.73
2017-06-02T10:39:49.128Z,28.83
2017-06-02T10:40:34.543Z,28.36
2017-06-02T10:41:34.577Z,28.14
2017-06-02T10:42:34.609Z,27.4
2017-06-02T10:43:34.641Z,27.57
2017-06-02T10:44:34.674Z,27.74
2017-06-02T10:45:34.709Z,28
2017-06-02T10:46:34.742Z,28.55
2017-06-02T10:49:34.843Z,28.37
2017-06-02T10:50:34.880Z,28.02
2017-06-02T10:51:34.912Z,27.94
2017-06-02T10:52:34.945Z,28.36
2017-06-02T10:53:34.671Z,28.43
2017-06-02T10:54:35.009Z,28.17
2017-06-02T10:55:49.657Z,27.81
2017-06-02T10:56:35.074Z,27.87
2017-06-02T10:57:34.803Z,27.74
2017-06-02T10:58:35.138Z,27.44
2017-06-02T10:59:35.219Z,27.32
2017-06-02T11:00:35.203Z,27.17
2017-06-02T11:01:35.236Z,26.69
2017-06-02T11:02:35.268Z,26.54
2017-06-02T11:03:34.996Z,26.55
2017-06-02T11:04:35.332Z,26.8
2017-06-02T11:06:35.398Z,27.65
2017-06-02T11:07:50.049Z,27.66
2017-06-02T11:08:50.080Z,27.82
2017-06-02T11:09:35.494Z,27.99
2017-06-02T11:10:35.526Z,28.25
2017-06-02T11:11:49.874Z,28.58
2017-06-02T11:13:35.622Z,28.64
2017-06-02T11:14:35.718Z,28.49
2017-06-02T11:15:35.693Z,28.39
2017-06-02T11:16:35.719Z,28.18
2017-06-02T11:17:35.750Z,28.29
2017-06-02T11:18:35.480Z,28.11
2017-06-02T11:19:35.812Z,28.3
2017-06-02T11:20:35.848Z,28.62
2017-06-02T11:21:35.875Z,28.61
2017-06-02T11:22:35.960Z,28.58
2017-06-02T11:23:35.940Z,28.7
2017-06-02T11:24:35.669Z,28.9
2017-06-02T11:25:36.005Z,28.89
2017-06-02T11:26:50.657Z,29.06
2017-06-02T11:27:36.069Z,29
2017-06-02T11:28:36.101Z,28.7
2017-06-02T11:29:36.183Z,28.59
2017-06-02T11:30:36.164Z,28.33
2017-06-02T11:31:36.221Z,28.18
2017-06-02T11:32:36.234Z,28.14
2017-06-02T11:33:36.263Z,27.85
2017-06-02T11:34:36.293Z,27.99
2017-06-02T11:35:36.367Z,28.3
2017-06-02T11:36:36.055Z,28.4
2017-06-02T11:37:51.006Z,28.61
2017-06-02T11:38:50.732Z,28.59
2017-06-02T11:39:50.764Z,28.06
2017-06-02T11:40:36.177Z,28.11
2017-06-02T11:41:36.512Z,28.27
2017-06-02T11:42:36.241Z,28.41
2017-06-02T11:43:36.575Z,28.52
2017-06-02T11:44:36.606Z,28.8
2017-06-02T11:45:36.643Z,28.85
2017-06-02T11:46:36.670Z,28.21
2017-06-02T11:47:36.396Z,28.02
2017-06-02T11:48:36.736Z,27.87
2017-06-02T11:49:36.763Z,27.65
2017-06-02T11:50:36.795Z,27.6
2017-06-02T11:51:36.828Z,27.09
2017-06-02T11:52:36.866Z,27.34
2017-06-02T11:53:36.891Z,27.82
2017-06-02T11:54:36.922Z,27.74
2017-06-02T11:55:36.956Z,27.63
2017-06-02T11:56:36.988Z,27.43
2017-06-02T11:57:37.014Z,27.51
2017-06-02T11:58:51.662Z,27.49
2017-06-02T11:59:37.076Z,27.54
2017-06-02T12:00:37.107Z,27.39
2017-06-02T12:01:37.138Z,26.97
2017-06-02T12:02:37.169Z,26.77
2017-06-02T12:03:37.199Z,26.72
2017-06-02T12:04:37.232Z,26.66
2017-06-02T12:05:36.960Z,26.67
2017-06-02T12:06:37.292Z,26.66
2017-06-02T12:07:37.325Z,26.7
2017-06-02T12:08:37.356Z,26.81
2017-06-02T12:09:37.386Z,26.95
2017-06-02T12:10:37.416Z,26.88
2017-06-02T12:11:37.449Z,27.09
2017-06-02T12:12:52.096Z,26.99
2017-06-02T12:13:37.508Z,26.57
2017-06-02T12:14:52.159Z,26.7
2017-06-02T12:15:37.571Z,26.89
2017-06-02T12:16:37.311Z,27.18
2017-06-02T12:17:37.636Z,27.31
2017-06-02T12:19:37.694Z,27.09
2017-06-02T12:20:37.730Z,27.21
2017-06-02T12:21:37.753Z,26.92
2017-06-02T12:22:37.485Z,26.94
2017-06-02T12:23:37.818Z,26.95
2017-06-02T12:24:37.849Z,26.84
2017-06-02T12:25:37.879Z,26.84
2017-06-02T12:26:52.528Z,26.62
2017-06-02T12:27:37.939Z,26.58
2017-06-02T12:28:37.969Z,26.43
2017-06-02T12:29:38.000Z,26.52
2017-06-02T12:30:52.649Z,26.72
2017-06-02T12:31:38.062Z,26.92
2017-06-02T12:32:38.091Z,26.6
2017-06-02T12:33:38.122Z,26.6
2017-06-02T12:34:38.154Z,26.67
2017-06-02T12:35:38.182Z,26.72
2017-06-02T12:36:38.214Z,26.82
2017-06-02T12:37:38.244Z,26.87
2017-06-02T12:38:38.275Z,26.63
2017-06-02T12:40:38.336Z,26.28
2017-06-02T12:41:38.365Z,26.32
2017-06-02T12:42:53.015Z,26.35
2017-06-02T12:43:38.427Z,26.33
2017-06-02T12:44:38.457Z,26.3
2017-06-02T12:45:38.486Z,26.44
2017-06-02T12:46:53.135Z,26.99
2017-06-02T12:47:38.241Z,27.18
2017-06-02T12:48:38.577Z,27.27
2017-06-02T12:49:38.300Z,27.19
2017-06-02T12:50:38.640Z,27.03
2017-06-02T12:51:38.666Z,26.75
2017-06-02T12:52:38.696Z,26.65
2017-06-02T12:53:38.728Z,26.65
2017-06-02T12:54:38.756Z,26.75
2017-06-02T12:57:38.547Z,26.91
2017-06-02T12:58:38.930Z,26.55
2017-06-02T12:59:53.224Z,26.45
2017-06-02T13:00:38.988Z,26.69
2017-06-02T13:01:53.589Z,26.67
2017-06-02T13:02:39.002Z,26.66
2017-06-02T13:03:39.029Z,26.58
2017-06-02T13:04:39.060Z,26.66
2017-06-02T13:05:39.092Z,26.6
2017-06-02T13:06:39.120Z,26.69
2017-06-02T13:07:39.200Z,26.72
2017-06-02T13:08:38.877Z,26.76
2017-06-02T13:09:39.210Z,26.77
2017-06-02T13:10:39.240Z,26.69
2017-06-02T13:11:39.271Z,26.6
2017-06-02T13:12:38.999Z,26.39
2017-06-02T13:13:39.333Z,26.43
2017-06-02T13:14:39.061Z,26.57
2017-06-02T13:15:54.010Z,26.67
2017-06-02T13:16:39.422Z,26.7
2017-06-02T13:17:39.453Z,26.84
2017-06-02T13:18:39.533Z,26.92
2017-06-02T13:19:39.512Z,26.94
2017-06-02T13:20:39.239Z,26.88
2017-06-02T13:21:39.571Z,26.88
2017-06-02T13:22:39.603Z,26.45
2017-06-02T13:23:39.630Z,26.48
2017-06-02T13:25:39.692Z,26.39
2017-06-02T13:26:39.722Z,26.06
2017-06-02T13:27:54.374Z,25.8
2017-06-02T13:29:39.810Z,25.9
2017-06-02T13:30:39.842Z,25.85
2017-06-02T13:31:39.870Z,25.91
2017-06-02T13:32:39.899Z,26.29
2017-06-02T13:33:54.550Z,26.55
2017-06-02T13:34:40.010Z,26.63
2017-06-02T13:35:39.991Z,26.39
2017-06-02T13:36:40.020Z,26.29
2017-06-02T13:37:40.050Z,26.2
2017-06-02T13:38:39.781Z,26.02
2017-06-02T13:39:40.111Z,26.37
2017-06-02T13:40:40.161Z,26.47
2017-06-02T13:41:40.170Z,26.26